Shawnee, OK (74801)

12:08 PM CDT on July 29, 2016 (GMT -0500)
Shawnee Municipal | | Change Station

Elev 1073 ft 35.36 °N, 96.94 °W | Updated 13 minutes ago

Light Rain
Light Rain
74 °F
Feels Like 74 °F
N
13
Wind Variable Wind from SE

Today
High -- | Low -- °F
--% Chance of Precip.
Yesterday
High -- | Low -- °F
Precip. -- in
Pressure 29.97 in
Visibility 10.0 miles
Clouds Scattered Clouds 4800 ft
Scattered Clouds 6000 ft
Overcast 9500 ft
Dew Point 67 °F
Humidity 77%
Rainfall 0.15 in
Snow Depth Not available.
6:34 AM 8:33 PM
Waning Crescent, 20% visible
METAR KSNL 291655Z AUTO 14011KT 10SM -RA SCT048 SCT060 OVC095 24/19 A2997 RMK AO2 T02350193
Pressure 29.97 in
Visibility 10.0 miles
Clouds Scattered Clouds 4800 ft
Scattered Clouds 6000 ft
Overcast 9500 ft
Dew Point 67 °F
Humidity 77%
Rainfall 0.15 in
Snow Depth Not available.
6:34 AM 8:33 PM
Waning Crescent, 20% visible
METAR KSNL 291655Z AUTO 14011KT 10SM -RA SCT048 SCT060 OVC095 24/19 A2997 RMK AO2 T02350193

10-Day Weather Forecast

Almanac

Astronomy

Jul. 29, 2016 Rise Set
Actual Time
Civil Twilight
Nautical Twilight
Astronomical Twilight
Moon
Length of Visible Light
Length of Day
Tomorrow will be .
, % of the Moon is Illuminated

Today's Extremes

State Highs State Lows

Community

WunderPhotos

Upload Photos

1,928,381 photos uploaded!

WunderBlog® & News

Nearby

Air Quality

  Air Quality AQ Index Pollutant
Not available.

Snow Depth

Station Depth Elevation

Earthquake Activity

City Distance Mag. Time & Date
Minimum magnitude displayed is 2.5.

Coastal Water Temperatures

Place Temperature

Stations

Nearby Weather Stations

Station Location Temp. Windchill Dew Point Humidity Wind Precip. Elev Updated Type
                   

Watches & Warnings

There are currently no watches in effect.